createdAt,value
2022-08-04T00:00:50.083Z,81.67
2022-08-04T00:01:51.079Z,81.27
2022-08-04T00:02:50.067Z,81.13
2022-08-04T00:03:50.042Z,81.63
2022-08-04T00:04:50.998Z,81.67
2022-08-04T00:05:50.035Z,81.67
2022-08-04T00:06:49.999Z,82.28
2022-08-04T00:07:49.989Z,82.67
2022-08-04T00:08:49.990Z,82.57
2022-08-04T00:09:49.974Z,82.51
2022-08-04T00:10:49.982Z,82.28
2022-08-04T00:11:50.504Z,82.21
2022-08-04T00:12:49.949Z,82.61
2022-08-04T00:13:59.759Z,82.51
2022-08-04T00:14:50.916Z,82.07
2022-08-04T00:15:49.896Z,82.91
2022-08-04T00:16:49.917Z,82.71
2022-08-04T00:17:49.877Z,82.71
2022-08-04T00:18:49.868Z,82.37
2022-08-04T00:19:49.861Z,82.91
2022-08-04T00:20:49.850Z,82.41
2022-08-04T00:21:49.853Z,82.21
2022-08-04T00:22:49.830Z,82.31
2022-08-04T00:24:11.405Z,81.71
2022-08-04T00:24:50.797Z,81.81
2022-08-04T00:25:49.795Z,81.48
2022-08-04T00:26:49.801Z,81.61
2022-08-04T00:27:49.773Z,82.61
2022-08-04T00:28:49.755Z,81.81
2022-08-04T00:29:53.038Z,81.71
2022-08-04T00:30:49.737Z,81.07
2022-08-04T00:31:56.112Z,81.07
2022-08-04T00:32:51.040Z,81.27
2022-08-04T00:33:49.730Z,81.01
2022-08-04T00:34:50.513Z,81.18
2022-08-04T00:35:49.684Z,81.07
2022-08-04T00:36:49.677Z,80.98
2022-08-04T00:37:49.657Z,80.38
2022-08-04T00:38:50.567Z,80.27
2022-08-04T00:39:49.637Z,80.98
2022-08-04T00:40:49.631Z,80.68
2022-08-04T00:41:56.446Z,80.88
2022-08-04T00:42:59.224Z,80.77
2022-08-04T00:43:50.586Z,80.88
2022-08-04T00:44:49.610Z,80.88
2022-08-04T00:46:15.786Z,80.88
2022-08-04T00:46:50.565Z,81.07
2022-08-04T00:47:49.566Z,81.07
2022-08-04T00:48:50.552Z,80.98
2022-08-04T00:49:49.530Z,81.07
2022-08-04T00:50:50.512Z,80.68
2022-08-04T00:52:31.854Z,81.27
2022-08-04T00:52:50.495Z,80.77
2022-08-04T00:53:51.523Z,81.21
2022-08-04T00:54:49.537Z,81.07
2022-08-04T00:55:49.468Z,80.82
2022-08-04T00:56:49.560Z,80.77
2022-08-04T00:57:49.444Z,80.68
2022-08-04T00:58:49.444Z,80.98
2022-08-04T00:59:49.440Z,81.01
2022-08-04T01:00:49.405Z,81.07
2022-08-04T01:01:49.455Z,81.71
2022-08-04T01:02:49.407Z,81.01
2022-08-04T01:03:51.464Z,81.31
2022-08-04T01:04:49.370Z,82.41
2022-08-04T01:05:49.350Z,81.61
2022-08-04T01:06:56.055Z,81.01
2022-08-04T01:07:50.343Z,80.82
2022-08-04T01:08:49.344Z,82.31
2022-08-04T01:09:49.309Z,82.51
2022-08-04T01:10:49.298Z,82.31
2022-08-04T01:11:56.588Z,81.92
2022-08-04T01:12:50.283Z,82.91
2022-08-04T01:13:49.279Z,82.01
2022-08-04T01:14:49.289Z,81.92
2022-08-04T01:15:59.263Z,82.61
2022-08-04T01:16:50.249Z,82.51
2022-08-04T01:17:49.235Z,82.91
2022-08-04T01:18:49.229Z,81.61
2022-08-04T01:19:49.240Z,82.41
2022-08-04T01:20:49.218Z,82.31
2022-08-04T01:21:49.190Z,82.41
2022-08-04T01:22:49.166Z,82.41
2022-08-04T01:23:49.174Z,81.51
2022-08-04T01:24:49.157Z,82.15
2022-08-04T01:25:49.144Z,82.11
2022-08-04T01:26:57.808Z,82.21
2022-08-04T01:27:50.120Z,82.41
2022-08-04T01:28:49.634Z,82.55
2022-08-04T01:29:49.111Z,82.35
2022-08-04T01:30:49.108Z,82.91
2022-08-04T01:31:49.083Z,82.81
2022-08-04T01:32:49.080Z,81.71
2022-08-04T01:33:58.551Z,82.41
2022-08-04T01:34:50.064Z,81.81
2022-08-04T01:35:49.054Z,81.71
2022-08-04T01:36:50.396Z,81.61
2022-08-04T01:37:49.002Z,81.61
2022-08-04T01:38:49.009Z,81.01
2022-08-04T01:39:49.006Z,82.21
2022-08-04T01:40:49.063Z,82.65
2022-08-04T01:41:58.369Z,82.25
2022-08-04T01:42:52.519Z,82.45
2022-08-04T01:43:48.953Z,82.75
2022-08-04T01:44:48.954Z,82.45
2022-08-04T01:45:48.926Z,82.85
2022-08-04T01:46:48.932Z,81.75
2022-08-04T01:47:48.898Z,82.45
2022-08-04T01:48:48.894Z,81.95
2022-08-04T01:49:48.883Z,81.95
2022-08-04T01:50:52.982Z,82.35
2022-08-04T01:51:48.885Z,82.45
2022-08-04T01:52:51.321Z,81.85
2022-08-04T01:53:49.533Z,81.65
2022-08-04T01:54:48.825Z,82.15
2022-08-04T01:55:54.116Z,82.25
2022-08-04T01:56:49.872Z,82.15
2022-08-04T01:57:48.993Z,82.59
2022-08-04T01:58:48.779Z,82.55
2022-08-04T01:59:48.774Z,82.95
2022-08-04T02:00:51.166Z,81.89
2022-08-04T02:01:49.970Z,82.55
2022-08-04T02:02:48.844Z,82.55
2022-08-04T02:04:18.536Z,81.95
2022-08-04T02:04:50.527Z,82.55
2022-08-04T02:06:03.357Z,82.65
2022-08-04T02:06:49.686Z,82.35
2022-08-04T02:07:48.696Z,81.75
2022-08-04T02:08:48.670Z,82.55
2022-08-04T02:09:54.730Z,83.09
2022-08-04T02:10:49.650Z,82.35
2022-08-04T02:11:48.643Z,83.49
2022-08-04T02:12:48.630Z,82.59
2022-08-04T02:13:48.611Z,82.09
2022-08-04T02:14:48.610Z,82.19
2022-08-04T02:15:48.603Z,82.99
2022-08-04T02:16:52.494Z,82.89
2022-08-04T02:17:49.542Z,82.99
2022-08-04T02:18:50.611Z,82.99
2022-08-04T02:19:48.542Z,82.69
2022-08-04T02:20:49.534Z,83.29
2022-08-04T02:21:48.553Z,82.89
2022-08-04T02:22:48.531Z,83.29
2022-08-04T02:23:51.030Z,82.49
2022-08-04T02:24:51.024Z,83.19
2022-08-04T02:25:48.498Z,83.79
2022-08-04T02:26:48.470Z,83.09
2022-08-04T02:28:00.509Z,82.99
2022-08-04T02:28:49.456Z,82.69
2022-08-04T02:29:48.434Z,82.39
2022-08-04T02:30:48.441Z,82.49
2022-08-04T02:31:48.551Z,82.39
2022-08-04T02:32:48.414Z,83.69
2022-08-04T02:33:49.047Z,83.29
2022-08-04T02:34:48.376Z,84.49
2022-08-04T02:35:49.042Z,83.99
2022-08-04T02:36:48.393Z,83.59
2022-08-04T02:37:48.351Z,84.03
2022-08-04T02:38:48.345Z,84.09
2022-08-04T02:39:49.570Z,83.99
2022-08-04T02:40:48.323Z,83.89
2022-08-04T02:41:49.034Z,83.89
2022-08-04T02:42:49.384Z,83.99
2022-08-04T02:43:51.836Z,83.89
2022-08-04T02:44:48.277Z,83.53
2022-08-04T02:45:48.257Z,84.43
2022-08-04T02:46:48.301Z,83.33
2022-08-04T02:48:25.217Z,84.43
2022-08-04T02:48:49.233Z,84.13
2022-08-04T02:49:49.039Z,84.03
2022-08-04T02:50:52.187Z,84.23
2022-08-04T02:51:49.050Z,84.73
2022-08-04T02:52:48.209Z,84.73
2022-08-04T02:53:48.172Z,84.73
2022-08-04T02:54:48.169Z,84.63
2022-08-04T02:55:52.304Z,84.83
2022-08-04T02:56:50.328Z,84.73
2022-08-04T02:57:48.128Z,84.67
2022-08-04T02:58:49.066Z,84.87
2022-08-04T02:59:48.118Z,84.97
2022-08-04T03:00:48.175Z,85.17
2022-08-04T03:01:57.374Z,85.27
2022-08-04T03:02:49.073Z,85.27
2022-08-04T03:03:48.068Z,84.97
2022-08-04T03:04:48.098Z,84.77
2022-08-04T03:05:54.142Z,85.17
2022-08-04T03:06:49.029Z,86.27
2022-08-04T03:07:48.019Z,85.17
2022-08-04T03:08:48.009Z,85.37
2022-08-04T03:09:48.021Z,84.97
2022-08-04T03:10:47.988Z,84.97
2022-08-04T03:11:48.881Z,85.07
2022-08-04T03:12:47.966Z,85.87
2022-08-04T03:13:48.105Z,85.87
2022-08-04T03:14:47.949Z,85.87
2022-08-04T03:15:47.934Z,86.18
2022-08-04T03:16:48.546Z,85.97
2022-08-04T03:17:52.982Z,85.82
2022-08-04T03:18:49.069Z,85.82
2022-08-04T03:19:47.879Z,85.82
2022-08-04T03:20:47.886Z,86.01
2022-08-04T03:21:47.860Z,86.01
2022-08-04T03:23:11.531Z,85.91
2022-08-04T03:23:48.837Z,86.01
2022-08-04T03:24:47.826Z,85.51
2022-08-04T03:25:56.828Z,85.31
2022-08-04T03:26:48.801Z,85.82
2022-08-04T03:27:47.804Z,85.68
2022-08-04T03:28:47.810Z,85.57
2022-08-04T03:29:49.551Z,86.01
2022-08-04T03:30:47.766Z,86.27
2022-08-04T03:31:47.756Z,86.21
2022-08-04T03:32:47.749Z,86.21
2022-08-04T03:33:48.787Z,86.37
2022-08-04T03:34:47.716Z,86.52
2022-08-04T03:35:47.718Z,86.71
2022-08-04T03:36:48.570Z,86.91
2022-08-04T03:37:47.710Z,87.21
2022-08-04T03:38:55.730Z,86.82
2022-08-04T03:39:49.545Z,86.82
2022-08-04T03:40:50.558Z,87.02
2022-08-04T03:41:51.723Z,86.82
2022-08-04T03:42:48.644Z,87.12
2022-08-04T03:43:58.326Z,87.12
2022-08-04T03:44:48.597Z,87.52
2022-08-04T03:45:48.554Z,87.26
2022-08-04T03:46:47.600Z,87.21
2022-08-04T03:47:48.555Z,87.12
2022-08-04T03:48:48.543Z,86.71
2022-08-04T03:49:47.556Z,86.91
2022-08-04T03:50:48.547Z,87.21
2022-08-04T03:51:49.617Z,86.61
2022-08-04T03:52:47.526Z,86.41
2022-08-04T03:53:47.553Z,86.55
2022-08-04T03:54:47.509Z,86.35
2022-08-04T03:55:47.548Z,86.16
2022-08-04T03:56:48.577Z,86.61
2022-08-04T03:57:47.458Z,86.25
2022-08-04T03:58:47.450Z,86.11
2022-08-04T03:59:49.078Z,86.55
2022-08-04T04:00:48.060Z,86.85
2022-08-04T04:02:02.621Z,87.05
2022-08-04T04:02:49.115Z,86.85
2022-08-04T04:03:47.398Z,87.76
2022-08-04T04:04:47.387Z,87.66
2022-08-04T04:06:00.057Z,87.55
2022-08-04T04:06:53.766Z,87.32
2022-08-04T04:07:49.767Z,87.46
2022-08-04T04:08:49.812Z,87.46
2022-08-04T04:09:52.318Z,87.41
2022-08-04T04:10:48.313Z,87.36
2022-08-04T04:11:56.711Z,87.55
2022-08-04T04:12:48.580Z,87.55
2022-08-04T04:13:47.284Z,87.36
2022-08-04T04:14:47.275Z,88.06
2022-08-04T04:15:50.393Z,88.06
2022-08-04T04:16:50.057Z,87.96
2022-08-04T04:17:47.574Z,88.16
2022-08-04T04:18:47.252Z,88.46
2022-08-04T04:19:47.216Z,87.46
2022-08-04T04:20:47.207Z,88.71
2022-08-04T04:21:50.574Z,89.06
2022-08-04T04:22:48.247Z,88.36
2022-08-04T04:23:47.169Z,89.06
2022-08-04T04:24:47.166Z,88.76
2022-08-04T04:25:47.153Z,88.36
2022-08-04T04:26:49.165Z,88.26
2022-08-04T04:27:48.052Z,89.16
2022-08-04T04:28:47.243Z,88.46
2022-08-04T04:29:47.118Z,88.56
2022-08-04T04:30:47.107Z,88.96
2022-08-04T04:31:50.063Z,88.46
2022-08-04T04:32:48.115Z,89.06
2022-08-04T04:33:47.072Z,88.76
2022-08-04T04:34:47.054Z,88.76
2022-08-04T04:35:47.063Z,88.36
2022-08-04T04:36:47.035Z,89.06
2022-08-04T04:37:48.672Z,89.06
2022-08-04T04:38:47.017Z,88.52
2022-08-04T04:39:46.996Z,88.66
2022-08-04T04:40:49.553Z,88.76
2022-08-04T04:41:46.992Z,88.66
2022-08-04T04:42:46.969Z,88.06
2022-08-04T04:43:51.543Z,88.46
2022-08-04T04:44:47.973Z,89.06
2022-08-04T04:45:46.933Z,89.06
2022-08-04T04:46:46.919Z,88.76
2022-08-04T04:48:08.301Z,88.46
2022-08-04T04:48:47.896Z,89.16
2022-08-04T04:49:46.904Z,88.12
2022-08-04T04:50:46.891Z,88.52
2022-08-04T04:51:46.863Z,88.46
2022-08-04T04:52:46.858Z,89.02
2022-08-04T04:53:46.847Z,89.12
2022-08-04T04:54:46.841Z,89.16
2022-08-04T04:55:48.409Z,89.32
2022-08-04T04:56:46.810Z,88.76
2022-08-04T04:57:54.317Z,88.66
2022-08-04T04:58:47.785Z,88.46
2022-08-04T04:59:47.824Z,88.66
2022-08-04T05:00:46.784Z,88.02
2022-08-04T05:01:46.881Z,88.66
2022-08-04T05:02:46.748Z,89.02
2022-08-04T05:03:46.739Z,88.32
2022-08-04T05:04:46.719Z,88.62
2022-08-04T05:05:46.720Z,88.42
2022-08-04T05:06:46.717Z,88.52
2022-08-04T05:07:48.733Z,88.02
2022-08-04T05:08:49.005Z,88.02
2022-08-04T05:09:47.708Z,88.12
2022-08-04T05:10:46.654Z,88.12
2022-08-04T05:11:46.645Z,87.98
2022-08-04T05:14:31.381Z,87.48
2022-08-04T05:14:35.874Z,87.68
2022-08-04T05:14:47.627Z,87.27
2022-08-04T05:15:46.600Z,87.48
2022-08-04T05:16:46.607Z,87.77
2022-08-04T05:17:46.571Z,87.18
2022-08-04T05:18:46.570Z,87.18
2022-08-04T05:19:46.574Z,86.93
2022-08-04T05:20:46.557Z,87.34
2022-08-04T05:21:46.564Z,87.53
2022-08-04T05:22:46.531Z,86.63
2022-08-04T05:23:46.509Z,86.43
2022-08-04T05:24:48.563Z,86.63
2022-08-04T05:25:58.482Z,86.23
2022-08-04T05:26:47.496Z,86.43
2022-08-04T05:27:46.499Z,85.99
2022-08-04T05:28:46.451Z,86.19
2022-08-04T05:29:46.447Z,86.29
2022-08-04T05:30:46.453Z,85.39
2022-08-04T05:31:46.431Z,85.89
2022-08-04T05:32:47.062Z,85.99
2022-08-04T05:33:46.407Z,84.95
2022-08-04T05:34:46.390Z,84.85
2022-08-04T05:36:18.009Z,84.55
2022-08-04T05:36:47.375Z,84.85
2022-08-04T05:37:47.069Z,84.45
2022-08-04T05:38:47.363Z,84.91
2022-08-04T05:39:47.506Z,84.51
2022-08-04T05:40:46.323Z,84.71
2022-08-04T05:41:48.188Z,84.41
2022-08-04T05:42:47.311Z,84.51
2022-08-04T05:43:46.314Z,83.77
2022-08-04T05:44:50.767Z,84.47
2022-08-04T05:45:46.270Z,84.57
2022-08-04T05:46:54.219Z,84.57
2022-08-04T05:47:47.245Z,85.07
2022-08-04T05:48:46.255Z,84.67
2022-08-04T05:50:01.406Z,84.97
2022-08-04T05:50:47.213Z,84.37
2022-08-04T05:51:48.082Z,84.43
2022-08-04T05:52:47.069Z,84.43
2022-08-04T05:53:47.086Z,84.03
2022-08-04T05:54:46.600Z,83.93
2022-08-04T05:55:48.788Z,84.13
2022-08-04T05:56:47.148Z,83.83
2022-08-04T05:57:47.092Z,83.83
2022-08-04T05:58:46.129Z,83.83
2022-08-04T05:59:48.087Z,82.73
2022-08-04T06:00:52.345Z,82.64
2022-08-04T06:01:55.967Z,82.23
2022-08-04T06:02:47.114Z,82.69
2022-08-04T06:03:46.574Z,82.39
2022-08-04T06:04:46.085Z,82.69
2022-08-04T06:05:46.572Z,82.75
2022-08-04T06:06:46.770Z,82.95
2022-08-04T06:08:07.718Z,82.59
2022-08-04T06:08:47.023Z,81.79
2022-08-04T06:09:46.128Z,82.39
2022-08-04T06:10:46.585Z,82.89
2022-08-04T06:12:00.709Z,82.95
2022-08-04T06:12:46.980Z,83.05
2022-08-04T06:13:49.979Z,82.15
2022-08-04T06:14:46.579Z,82.79
2022-08-04T06:15:46.201Z,82.65
2022-08-04T06:16:51.535Z,82.26
2022-08-04T06:18:33.950Z,82.56
2022-08-04T06:20:02.310Z,82.75
2022-08-04T06:20:03.738Z,81.46
2022-08-04T06:20:50.153Z,81.46
2022-08-04T06:21:46.579Z,81.32
2022-08-04T06:22:46.681Z,81.32
2022-08-04T06:23:53.686Z,82.02
2022-08-04T06:24:46.856Z,80.42
2022-08-04T06:25:47.722Z,80.32
2022-08-04T06:26:46.575Z,80.18
2022-08-04T06:27:45.843Z,79.49
2022-08-04T06:28:46.729Z,79.49
2022-08-04T06:29:51.229Z,79.19
2022-08-04T06:30:46.880Z,78.79
2022-08-04T06:32:30.444Z,79.39
2022-08-04T06:32:46.745Z,79.45
2022-08-04T06:33:54.464Z,79.45
2022-08-04T06:34:46.764Z,79.45
2022-08-04T06:35:46.730Z,79.75
2022-08-04T06:36:48.592Z,78.85
2022-08-04T06:37:46.187Z,79.35
2022-08-04T06:38:46.583Z,78.85
2022-08-04T06:39:46.817Z,79.65
2022-08-04T06:40:46.746Z,79.31
2022-08-04T06:42:02.521Z,79.01
2022-08-04T06:42:46.806Z,79.21
2022-08-04T06:43:46.576Z,79.51
2022-08-04T06:44:46.777Z,79.21
2022-08-04T06:45:45.610Z,79.21
2022-08-04T06:46:51.115Z,78.52
2022-08-04T06:47:45.598Z,78.72
2022-08-04T06:48:48.083Z,78.78
2022-08-04T06:51:26.315Z,78.88
2022-08-04T06:51:27.411Z,78.18
2022-08-04T06:51:49.367Z,77.98
2022-08-04T06:52:48.082Z,78.18
2022-08-04T06:53:46.546Z,78.28
2022-08-04T06:54:48.087Z,78.28
2022-08-04T06:55:45.624Z,77.94
2022-08-04T06:56:48.083Z,78.34
2022-08-04T06:57:45.491Z,77.64
2022-08-04T06:58:48.086Z,77.75
2022-08-04T06:59:48.090Z,78.34
2022-08-04T07:00:52.108Z,77.64
2022-08-04T07:01:47.244Z,77.70
2022-08-04T07:02:48.088Z,76.65
2022-08-04T07:03:45.467Z,76.12
2022-08-04T07:04:47.092Z,75.56
2022-08-04T07:05:48.106Z,75.32
2022-08-04T07:06:48.086Z,75.02
2022-08-04T07:07:57.563Z,75.22
2022-08-04T07:08:47.088Z,75.82
2022-08-04T07:09:45.346Z,75.09
2022-08-04T07:10:48.100Z,74.29
2022-08-04T07:11:47.145Z,74.09
2022-08-04T07:12:45.309Z,74.35
2022-08-04T07:13:48.088Z,72.67
2022-08-04T07:14:48.090Z,72.47
2022-08-04T07:15:45.288Z,72.93
2022-08-04T07:16:46.530Z,72.63
2022-08-04T07:17:47.382Z,72.63
2022-08-04T07:18:48.094Z,72.33
2022-08-04T07:19:48.088Z,72.73
2022-08-04T07:20:45.236Z,72.50
2022-08-04T07:22:18.211Z,72.89
2022-08-04T07:22:47.085Z,71.87
2022-08-04T07:23:47.126Z,71.11
2022-08-04T07:24:45.185Z,71.87
2022-08-04T07:26:00.705Z,72.23
2022-08-04T07:26:47.086Z,71.64
2022-08-04T07:27:49.404Z,69.76
2022-08-04T07:28:47.127Z,68.17
2022-08-04T07:29:46.093Z,68.17
2022-08-04T07:30:48.096Z,68.46
2022-08-04T07:31:48.099Z,69.62
2022-08-04T07:32:47.599Z,68.13
2022-08-04T07:33:45.596Z,68.13
2022-08-04T07:34:49.844Z,66.95
2022-08-04T07:36:05.124Z,66.25
2022-08-04T07:36:53.113Z,66.06
2022-08-04T07:37:45.042Z,66.55
2022-08-04T07:38:51.506Z,66.46
2022-08-04T07:39:48.002Z,65.66
2022-08-04T07:40:45.033Z,64.87
2022-08-04T07:41:48.719Z,66.55
2022-08-04T07:42:45.022Z,67.24
2022-08-04T07:43:44.966Z,65.83
2022-08-04T07:44:44.959Z,65.23
2022-08-04T07:45:44.951Z,65.23
2022-08-04T07:46:45.421Z,66.13
2022-08-04T07:48:06.190Z,65.43
2022-08-04T07:48:44.919Z,65.83
2022-08-04T07:49:55.065Z,66.13
2022-08-04T07:50:52.596Z,65.89
2022-08-04T07:51:44.881Z,66.09
2022-08-04T07:52:46.046Z,65.30
2022-08-04T07:53:55.409Z,65.30
2022-08-04T07:54:45.863Z,64.67
2022-08-04T07:55:46.934Z,65.07
2022-08-04T07:56:45.126Z,64.78
2022-08-04T07:57:45.084Z,65.27
2022-08-04T07:58:47.601Z,64.18
2022-08-04T07:59:48.301Z,65.47
2022-08-04T08:01:00.587Z,64.38
2022-08-04T08:01:47.606Z,64.78
2022-08-04T08:02:45.136Z,64.18
2022-08-04T08:03:44.835Z,63.85
2022-08-04T08:04:47.633Z,64.35
2022-08-04T08:05:54.605Z,64.25
2022-08-04T08:06:48.610Z,62.57
2022-08-04T08:07:50.359Z,63.65
2022-08-04T08:08:48.597Z,63.46
2022-08-04T08:09:45.599Z,62.96
2022-08-04T08:10:44.682Z,63.85
2022-08-04T08:12:38.442Z,61.88
2022-08-04T08:12:51.548Z,62.27
2022-08-04T08:14:08.691Z,62.93
2022-08-04T08:14:47.042Z,62.57
2022-08-04T08:15:44.626Z,63.92
2022-08-04T08:16:44.618Z,63.43
2022-08-04T08:17:58.640Z,64.02
2022-08-04T08:18:50.045Z,63.06
2022-08-04T08:19:44.641Z,63.53
2022-08-04T08:21:08.108Z,63.92
2022-08-04T08:21:58.923Z,63.62
2022-08-04T08:22:48.103Z,64.71
2022-08-04T08:23:47.119Z,64.61
2022-08-04T08:24:44.538Z,64.42
2022-08-04T08:25:45.112Z,63.62
2022-08-04T08:26:44.506Z,63.62
2022-08-04T08:27:56.116Z,65.01
2022-08-04T08:28:52.113Z,62.41
2022-08-04T08:29:44.523Z,62.51
2022-08-04T08:30:52.591Z,63.43
2022-08-04T08:32:07.027Z,63.40
2022-08-04T08:32:45.712Z,64.09
2022-08-04T08:33:47.110Z,64.68
2022-08-04T08:34:44.639Z,62.31
2022-08-04T08:35:51.125Z,63.30
2022-08-04T08:36:52.110Z,62.21
2022-08-04T08:37:44.647Z,61.32
2022-08-04T08:38:44.373Z,61.42
2022-08-04T08:39:45.158Z,60.80
2022-08-04T08:40:45.124Z,61.39
2022-08-04T08:41:59.617Z,59.69
2022-08-04T08:42:45.115Z,60.57
2022-08-04T08:44:03.903Z,60.57
2022-08-04T08:44:48.102Z,61.07
2022-08-04T08:45:44.301Z,60.38
2022-08-04T08:46:51.610Z,61.24
2022-08-04T08:48:04.808Z,60.05
2022-08-04T08:48:52.112Z,60.05
2022-08-04T08:50:02.765Z,59.75
2022-08-04T08:50:52.108Z,59.95
2022-08-04T08:51:51.118Z,60.25
2022-08-04T08:53:00.787Z,60.12
2022-08-04T08:53:45.247Z,60.41
2022-08-04T08:54:44.193Z,60.31
2022-08-04T08:55:44.189Z,61.04
2022-08-04T08:56:44.183Z,60.05
2022-08-04T08:58:00.262Z,60.05
2022-08-04T08:58:48.114Z,59.75
2022-08-04T08:59:49.642Z,59.63
2022-08-04T09:00:45.115Z,59.56
2022-08-04T09:01:44.181Z,60.05
2022-08-04T09:02:44.618Z,59.95
2022-08-04T09:03:44.119Z,60.44
2022-08-04T09:04:44.128Z,61.13
2022-08-04T09:05:44.083Z,61.04
2022-08-04T09:06:44.077Z,61.30
2022-08-04T09:07:44.064Z,60.54
2022-08-04T09:08:44.056Z,60.31
2022-08-04T09:09:44.035Z,61.69
2022-08-04T09:10:44.156Z,60.41
2022-08-04T09:11:44.004Z,61.21
2022-08-04T09:12:45.035Z,60.39
2022-08-04T09:13:44.001Z,59.89
2022-08-04T09:14:44.617Z,60.58
2022-08-04T09:15:44.154Z,59.67
2022-08-04T09:16:43.960Z,60.95
2022-08-04T09:17:44.621Z,61.24
2022-08-04T09:18:43.943Z,60.16
2022-08-04T09:19:44.157Z,60.16
2022-08-04T09:20:44.145Z,60.03
2022-08-04T09:21:43.913Z,59.08
2022-08-04T09:22:44.615Z,59.77
2022-08-04T09:23:44.620Z,59.96
2022-08-04T09:25:04.902Z,59.74
2022-08-04T09:25:43.889Z,60.13
2022-08-04T09:26:50.623Z,59.47
2022-08-04T09:27:45.616Z,58.75
2022-08-04T09:29:04.839Z,58.75
2022-08-04T09:29:43.820Z,58.06
2022-08-04T09:30:43.813Z,59.84
2022-08-04T09:31:51.551Z,60.10
2022-08-04T09:32:44.787Z,59.44
2022-08-04T09:33:46.135Z,60.30
2022-08-04T09:34:43.767Z,57.94
2022-08-04T09:35:44.642Z,57.32
2022-08-04T09:36:43.772Z,57.32
2022-08-04T09:37:46.096Z,56.73
2022-08-04T09:39:04.764Z,57.32
2022-08-04T09:39:44.521Z,57.22
2022-08-04T09:40:53.794Z,57.59
2022-08-04T09:41:49.045Z,56.70
2022-08-04T09:42:44.712Z,58.18
2022-08-04T09:44:42.788Z,56.80
2022-08-04T09:44:52.988Z,57.07
2022-08-04T09:45:44.666Z,57.29
2022-08-04T09:46:59.645Z,56.90
2022-08-04T09:47:43.643Z,56.41
2022-08-04T09:48:50.143Z,55.91
2022-08-04T09:49:43.597Z,54.83
2022-08-04T09:50:48.181Z,54.74
2022-08-04T09:51:57.300Z,55.60
2022-08-04T09:52:44.588Z,55.20
2022-08-04T09:53:43.587Z,56.09
2022-08-04T09:54:44.122Z,54.91
2022-08-04T09:55:53.975Z,55.20
2022-08-04T09:57:05.537Z,54.98
2022-08-04T09:57:43.514Z,53.80
2022-08-04T09:58:44.144Z,54.49
2022-08-04T09:59:43.489Z,54.68
2022-08-04T10:00:43.659Z,54.36
2022-08-04T10:01:44.126Z,53.97
2022-08-04T10:02:43.493Z,53.19
2022-08-04T10:04:05.136Z,53.65
2022-08-04T10:04:45.173Z,54.04
2022-08-04T10:05:43.451Z,53.16
2022-08-04T10:06:43.427Z,51.39
2022-08-04T10:07:43.418Z,51.96
2022-08-04T10:08:44.409Z,51.25
2022-08-04T10:09:43.401Z,52.13
2022-08-04T10:10:43.378Z,51.25
2022-08-04T10:11:55.567Z,51.05
2022-08-04T10:12:51.137Z,50.85
2022-08-04T10:13:43.345Z,50.76
2022-08-04T10:14:44.130Z,50.93
2022-08-04T10:15:45.144Z,50.93
2022-08-04T10:16:43.315Z,50.42
2022-08-04T10:17:52.438Z,49.63
2022-08-04T10:18:45.133Z,49.51
2022-08-04T10:19:43.277Z,49.14
2022-08-04T10:20:46.423Z,49.04
2022-08-04T10:21:59.479Z,49.14
2022-08-04T10:23:09.135Z,49.41
2022-08-04T10:24:05.245Z,49.02
2022-08-04T10:24:50.136Z,48.60
2022-08-04T10:26:06.836Z,49.38
2022-08-04T10:26:44.200Z,49.29
2022-08-04T10:27:44.238Z,47.24
2022-08-04T10:28:43.193Z,49.16
2022-08-04T10:29:43.194Z,48.87
2022-08-04T10:30:43.161Z,50.24
2022-08-04T10:31:43.149Z,45.94
2022-08-04T10:32:43.285Z,47.02
2022-08-04T10:33:43.641Z,47.87
2022-08-04T10:34:43.130Z,48.07
2022-08-04T10:35:49.639Z,49.63
2022-08-04T10:36:43.160Z,49.71
2022-08-04T10:37:58.983Z,47.48
2022-08-04T10:38:44.078Z,48.83
2022-08-04T10:39:57.657Z,47.75
2022-08-04T10:40:43.646Z,48.83
2022-08-04T10:41:43.174Z,47.95
2022-08-04T10:42:43.052Z,47.09
2022-08-04T10:43:43.045Z,46.31
2022-08-04T10:44:43.047Z,46.70
2022-08-04T10:45:43.003Z,46.09
2022-08-04T10:46:43.030Z,49.12
2022-08-04T10:47:45.642Z,47.17
2022-08-04T10:48:45.642Z,48.32
2022-08-04T10:49:42.995Z,47.75
2022-08-04T10:50:52.158Z,46.88
2022-08-04T10:51:57.386Z,46.19
2022-08-04T10:52:43.933Z,45.68
2022-08-04T10:53:43.178Z,45.97
2022-08-04T10:54:45.651Z,44.48
2022-08-04T10:56:07.260Z,44.48
2022-08-04T10:56:43.888Z,44.58
2022-08-04T10:57:45.654Z,44.60
2022-08-04T10:58:47.792Z,46.07
2022-08-04T10:59:43.859Z,45.48
2022-08-04T11:00:43.649Z,46.36
2022-08-04T11:01:50.960Z,45.58
2022-08-04T11:02:43.889Z,45.61
2022-08-04T11:03:43.685Z,46.56
2022-08-04T11:04:42.849Z,44.51
2022-08-04T11:06:04.857Z,46.53
2022-08-04T11:06:43.653Z,46.04
2022-08-04T11:07:42.778Z,45.26
2022-08-04T11:08:43.171Z,45.87
2022-08-04T11:09:43.190Z,46.63
2022-08-04T11:10:42.748Z,47.51
2022-08-04T11:11:57.154Z,49.27
2022-08-04T11:12:43.728Z,49.07
2022-08-04T11:13:46.908Z,48.02
2022-08-04T11:14:43.712Z,48.51
2022-08-04T11:15:42.706Z,49.17
2022-08-04T11:16:43.661Z,47.61
2022-08-04T11:17:42.672Z,48.88
2022-08-04T11:18:42.676Z,48.85
2022-08-04T11:19:48.622Z,48.49
2022-08-04T11:20:43.649Z,48.58
2022-08-04T11:21:45.166Z,48.58
2022-08-04T11:22:43.158Z,49.07
2022-08-04T11:23:42.615Z,49.15
2022-08-04T11:24:42.625Z,48.46
2022-08-04T11:25:42.592Z,47.66
2022-08-04T11:26:43.161Z,46.61
2022-08-04T11:27:42.684Z,46.90
2022-08-04T11:28:45.161Z,47.19
2022-08-04T11:29:42.542Z,47.22
2022-08-04T11:30:43.159Z,47.02
2022-08-04T11:31:42.526Z,45.87
2022-08-04T11:32:43.570Z,45.97
2022-08-04T11:33:42.687Z,45.68
2022-08-04T11:34:43.500Z,45.58
2022-08-04T11:35:43.482Z,46.39
2022-08-04T11:36:42.481Z,46.48
2022-08-04T11:37:42.482Z,46.39
2022-08-04T11:38:46.184Z,46.09
2022-08-04T11:39:43.549Z,46.95
2022-08-04T11:41:02.260Z,46.73
2022-08-04T11:41:43.419Z,46.90
2022-08-04T11:42:42.428Z,45.83
2022-08-04T11:43:56.559Z,44.78
2022-08-04T11:44:43.406Z,47.31
2022-08-04T11:45:42.380Z,45.73
2022-08-04T11:46:42.369Z,45.64
2022-08-04T11:47:43.413Z,46.31
2022-08-04T11:48:42.690Z,45.85
2022-08-04T11:49:57.591Z,45.95
2022-08-04T11:50:43.329Z,46.92
2022-08-04T11:51:49.171Z,45.95
2022-08-04T11:52:42.304Z,46.36
2022-08-04T11:53:43.332Z,45.68
2022-08-04T11:54:42.289Z,46.63
2022-08-04T11:56:07.602Z,45.07
2022-08-04T11:56:43.273Z,45.65
2022-08-04T11:57:42.260Z,45.46
2022-08-04T11:58:42.275Z,46.73
2022-08-04T11:59:43.687Z,45.29
2022-08-04T12:00:45.171Z,45.39
2022-08-04T12:01:42.212Z,46.75
2022-08-04T12:02:45.243Z,47.36
2022-08-04T12:03:42.210Z,47.85
2022-08-04T12:04:44.168Z,48.07
2022-08-04T12:05:42.201Z,47.28
2022-08-04T12:06:42.661Z,47.48
2022-08-04T12:07:49.682Z,46.80
2022-08-04T12:08:42.680Z,47.19
2022-08-04T12:09:42.128Z,47.80
2022-08-04T12:10:42.903Z,47.97
2022-08-04T12:11:42.121Z,46.80
2022-08-04T12:12:42.100Z,47.28
2022-08-04T12:13:42.096Z,47.11
2022-08-04T12:14:42.083Z,47.11
2022-08-04T12:15:48.691Z,46.82
2022-08-04T12:16:42.075Z,47.02
2022-08-04T12:17:53.067Z,47.31
2022-08-04T12:18:45.671Z,47.02
2022-08-04T12:20:03.479Z,46.92
2022-08-04T12:20:44.079Z,46.72
2022-08-04T12:21:43.553Z,46.82
2022-08-04T12:22:42.993Z,46.60
2022-08-04T12:23:41.990Z,45.94
2022-08-04T12:24:42.676Z,46.70
2022-08-04T12:25:44.868Z,47.09
2022-08-04T12:26:41.966Z,46.99
2022-08-04T12:27:42.675Z,46.68
2022-08-04T12:29:12.041Z,46.78
2022-08-04T12:29:43.681Z,45.80
2022-08-04T12:30:59.818Z,45.70
2022-08-04T12:31:42.918Z,44.55
2022-08-04T12:32:48.347Z,47.58
2022-08-04T12:34:05.415Z,46.21
2022-08-04T12:34:42.866Z,47.11
2022-08-04T12:36:11.417Z,46.53
2022-08-04T12:36:43.225Z,46.33
2022-08-04T12:37:41.842Z,47.02
2022-08-04T12:38:41.853Z,46.82
2022-08-04T12:40:27.673Z,46.99
2022-08-04T12:40:42.837Z,47.58
2022-08-04T12:41:41.814Z,46.88
2022-08-04T12:42:56.194Z,47.27
2022-08-04T12:43:42.786Z,46.68
2022-08-04T12:44:41.803Z,47.46
2022-08-04T12:45:41.762Z,46.99
2022-08-04T12:46:41.744Z,47.31
2022-08-04T12:47:42.227Z,47.70
2022-08-04T12:48:56.679Z,47.43
2022-08-04T12:49:53.166Z,48.02
2022-08-04T12:50:42.718Z,48.70
2022-08-04T12:52:08.653Z,49.58
2022-08-04T12:53:05.643Z,49.80